sensor_id;sensor_type;location;lat;lon;timestamp;temperature;humidity
18444;DHT22;9350;53.176;8.194;2023-07-13T00:02:18;16.90;99.90
18444;DHT22;9350;53.176;8.194;2023-07-13T00:04:44;16.90;99.90
18444;DHT22;9350;53.176;8.194;2023-07-13T00:07:11;16.90;99.90
18444;DHT22;9350;53.176;8.194;2023-07-13T00:09:39;16.80;99.90
18444;DHT22;9350;53.176;8.194;2023-07-13T00:12:23;16.80;99.90
18444;DHT22;9350;53.176;8.194;2023-07-13T00:14:49;16.80;99.90
18444;DHT22;9350;53.176;8.194;2023-07-13T00:17:16;16.80;99.90
18444;DHT22;9350;53.176;8.194;2023-07-13T00:19:43;16.90;99.90
18444;DHT22;9350;53.176;8.194;2023-07-13T00:22:10;16.80;99.90
18444;DHT22;9350;53.176;8.194;2023-07-13T00:24:37;16.80;99.90
18444;DHT22;9350;53.176;8.194;2023-07-13T00:27:09;16.80;99.90
18444;DHT22;9350;53.176;8.194;2023-07-13T00:29:36;16.80;99.90
18444;DHT22;9350;53.176;8.194;2023-07-13T00:32:03;16.80;99.90
18444;DHT22;9350;53.176;8.194;2023-07-13T00:34:30;16.80;99.90
18444;DHT22;9350;53.176;8.194;2023-07-13T00:36:57;16.70;99.90
18444;DHT22;9350;53.176;8.194;2023-07-13T00:39:23;16.80;99.90
18444;DHT22;9350;53.176;8.194;2023-07-13T00:41:51;16.80;99.90
18444;DHT22;9350;53.176;8.194;2023-07-13T00:44:20;16.80;99.90
18444;DHT22;9350;53.176;8.194;2023-07-13T00:46:48;16.80;99.90
18444;DHT22;9350;53.176;8.194;2023-07-13T00:49:18;16.80;99.90
18444;DHT22;9350;53.176;8.194;2023-07-13T00:51:49;16.80;99.90
18444;DHT22;9350;53.176;8.194;2023-07-13T00:54:19;16.80;99.90
18444;DHT22;9350;53.176;8.194;2023-07-13T00:56:49;16.80;99.90
18444;DHT22;9350;53.176;8.194;2023-07-13T00:59:20;16.70;99.90
18444;DHT22;9350;53.176;8.194;2023-07-13T01:01:48;16.80;99.90
18444;DHT22;9350;53.176;8.194;2023-07-13T01:04:15;16.80;99.90
18444;DHT22;9350;53.176;8.194;2023-07-13T01:06:42;16.80;99.90
18444;DHT22;9350;53.176;8.194;2023-07-13T01:09:10;16.80;99.90
18444;DHT22;9350;53.176;8.194;2023-07-13T01:11:37;16.90;99.90
18444;DHT22;9350;53.176;8.194;2023-07-13T01:14:04;16.90;99.90
18444;DHT22;9350;53.176;8.194;2023-07-13T01:16:34;16.80;99.90
18444;DHT22;9350;53.176;8.194;2023-07-13T01:19:02;16.80;99.90
18444;DHT22;9350;53.176;8.194;2023-07-13T01:21:32;16.80;99.90
18444;DHT22;9350;53.176;8.194;2023-07-13T01:24:00;16.80;99.90
18444;DHT22;9350;53.176;8.194;2023-07-13T01:26:27;16.80;99.90
18444;DHT22;9350;53.176;8.194;2023-07-13T01:28:54;16.80;99.90
18444;DHT22;9350;53.176;8.194;2023-07-13T01:31:22;16.70;99.90
18444;DHT22;9350;53.176;8.194;2023-07-13T01:33:49;16.70;99.90
18444;DHT22;9350;53.176;8.194;2023-07-13T01:36:15;16.60;99.90
18444;DHT22;9350;53.176;8.194;2023-07-13T01:38:43;16.60;99.90
18444;DHT22;9350;53.176;8.194;2023-07-13T01:41:10;16.60;99.90
18444;DHT22;9350;53.176;8.194;2023-07-13T01:43:37;16.60;99.90
18444;DHT22;9350;53.176;8.194;2023-07-13T01:46:04;16.60;99.90
18444;DHT22;9350;53.176;8.194;2023-07-13T01:48:31;16.50;99.90
18444;DHT22;9350;53.176;8.194;2023-07-13T01:50:58;16.60;99.90
18444;DHT22;9350;53.176;8.194;2023-07-13T01:53:25;16.60;99.90
18444;DHT22;9350;53.176;8.194;2023-07-13T01:55:53;16.50;99.90
18444;DHT22;9350;53.176;8.194;2023-07-13T01:58:20;16.50;99.90
18444;DHT22;9350;53.176;8.194;2023-07-13T02:00:48;16.50;99.90
18444;DHT22;9350;53.176;8.194;2023-07-13T02:03:15;16.50;99.90
18444;DHT22;9350;53.176;8.194;2023-07-13T02:05:43;16.50;99.90
18444;DHT22;9350;53.176;8.194;2023-07-13T02:08:10;16.50;99.90
18444;DHT22;9350;53.176;8.194;2023-07-13T02:10:37;16.50;99.90
18444;DHT22;9350;53.176;8.194;2023-07-13T02:13:06;16.50;99.90
18444;DHT22;9350;53.176;8.194;2023-07-13T02:15:33;16.50;99.90
18444;DHT22;9350;53.176;8.194;2023-07-13T02:17:59;16.40;99.90
18444;DHT22;9350;53.176;8.194;2023-07-13T02:20:26;16.50;99.90
18444;DHT22;9350;53.176;8.194;2023-07-13T02:22:53;16.50;99.90
18444;DHT22;9350;53.176;8.194;2023-07-13T02:25:19;16.50;99.90
18444;DHT22;9350;53.176;8.194;2023-07-13T02:27:46;16.50;99.90
18444;DHT22;9350;53.176;8.194;2023-07-13T02:30:14;16.50;99.90
18444;DHT22;9350;53.176;8.194;2023-07-13T02:32:41;16.50;99.90
18444;DHT22;9350;53.176;8.194;2023-07-13T02:35:09;16.50;99.90
18444;DHT22;9350;53.176;8.194;2023-07-13T02:37:36;16.50;99.90
18444;DHT22;9350;53.176;8.194;2023-07-13T02:40:03;16.60;99.90
18444;DHT22;9350;53.176;8.194;2023-07-13T02:42:33;16.70;99.90
18444;DHT22;9350;53.176;8.194;2023-07-13T02:45:00;16.60;99.90
18444;DHT22;9350;53.176;8.194;2023-07-13T02:47:28;16.70;99.90
18444;DHT22;9350;53.176;8.194;2023-07-13T02:49:55;16.70;99.90
18444;DHT22;9350;53.176;8.194;2023-07-13T02:52:22;16.70;99.90
18444;DHT22;9350;53.176;8.194;2023-07-13T02:54:48;16.70;99.90
18444;DHT22;9350;53.176;8.194;2023-07-13T02:57:15;16.70;99.90
18444;DHT22;9350;53.176;8.194;2023-07-13T02:59:42;16.70;99.90
18444;DHT22;9350;53.176;8.194;2023-07-13T03:02:09;16.80;99.90
18444;DHT22;9350;53.176;8.194;2023-07-13T03:04:37;16.80;99.90
18444;DHT22;9350;53.176;8.194;2023-07-13T03:07:05;16.80;99.90
18444;DHT22;9350;53.176;8.194;2023-07-13T03:09:33;16.90;99.90
18444;DHT22;9350;53.176;8.194;2023-07-13T03:12:00;16.80;99.90
18444;DHT22;9350;53.176;8.194;2023-07-13T03:14:28;16.90;99.90
18444;DHT22;9350;53.176;8.194;2023-07-13T03:16:55;16.80;99.90
18444;DHT22;9350;53.176;8.194;2023-07-13T03:19:22;16.80;99.90
18444;DHT22;9350;53.176;8.194;2023-07-13T03:21:50;16.80;99.90
18444;DHT22;9350;53.176;8.194;2023-07-13T03:24:17;16.80;99.90
18444;DHT22;9350;53.176;8.194;2023-07-13T03:26:43;16.80;99.90
18444;DHT22;9350;53.176;8.194;2023-07-13T03:29:10;16.80;99.90
18444;DHT22;9350;53.176;8.194;2023-07-13T03:31:37;16.80;99.90
18444;DHT22;9350;53.176;8.194;2023-07-13T03:34:04;16.80;99.90
18444;DHT22;9350;53.176;8.194;2023-07-13T03:36:32;16.80;99.90
18444;DHT22;9350;53.176;8.194;2023-07-13T03:39:01;16.80;99.90
18444;DHT22;9350;53.176;8.194;2023-07-13T03:41:29;16.80;99.90
18444;DHT22;9350;53.176;8.194;2023-07-13T03:43:56;16.80;99.90
18444;DHT22;9350;53.176;8.194;2023-07-13T03:46:22;16.80;99.90
18444;DHT22;9350;53.176;8.194;2023-07-13T03:48:49;16.80;99.90
18444;DHT22;9350;53.176;8.194;2023-07-13T03:51:17;16.80;99.90
18444;DHT22;9350;53.176;8.194;2023-07-13T03:53:45;16.80;99.90
18444;DHT22;9350;53.176;8.194;2023-07-13T03:56:13;16.90;99.90
18444;DHT22;9350;53.176;8.194;2023-07-13T03:58:42;16.80;99.90
18444;DHT22;9350;53.176;8.194;2023-07-13T04:01:10;16.80;99.90
18444;DHT22;9350;53.176;8.194;2023-07-13T04:03:37;16.80;99.90
18444;DHT22;9350;53.176;8.194;2023-07-13T04:06:05;16.90;99.90
18444;DHT22;9350;53.176;8.194;2023-07-13T04:08:34;16.90;99.90
18444;DHT22;9350;53.176;8.194;2023-07-13T04:11:03;16.80;99.90
18444;DHT22;9350;53.176;8.194;2023-07-13T04:13:31;16.80;99.90
18444;DHT22;9350;53.176;8.194;2023-07-13T04:15:58;16.90;99.90
18444;DHT22;9350;53.176;8.194;2023-07-13T04:18:24;16.90;99.90
18444;DHT22;9350;53.176;8.194;2023-07-13T04:20:51;16.90;99.90
18444;DHT22;9350;53.176;8.194;2023-07-13T04:23:18;16.90;99.90
18444;DHT22;9350;53.176;8.194;2023-07-13T04:25:45;16.90;99.90
18444;DHT22;9350;53.176;8.194;2023-07-13T04:28:15;16.90;99.90
18444;DHT22;9350;53.176;8.194;2023-07-13T04:30:44;16.90;99.90
18444;DHT22;9350;53.176;8.194;2023-07-13T04:33:11;16.90;99.90
18444;DHT22;9350;53.176;8.194;2023-07-13T04:35:38;17.00;99.90
18444;DHT22;9350;53.176;8.194;2023-07-13T04:38:05;17.00;99.90
18444;DHT22;9350;53.176;8.194;2023-07-13T04:40:32;17.00;99.90
18444;DHT22;9350;53.176;8.194;2023-07-13T04:42:59;17.00;99.90
18444;DHT22;9350;53.176;8.194;2023-07-13T04:45:25;17.10;99.90
18444;DHT22;9350;53.176;8.194;2023-07-13T04:47:53;17.10;99.90
18444;DHT22;9350;53.176;8.194;2023-07-13T04:50:20;17.10;99.90
18444;DHT22;9350;53.176;8.194;2023-07-13T04:52:48;17.10;99.90
18444;DHT22;9350;53.176;8.194;2023-07-13T04:55:15;17.10;99.90
18444;DHT22;9350;53.176;8.194;2023-07-13T04:57:42;17.20;99.90
18444;DHT22;9350;53.176;8.194;2023-07-13T05:00:09;17.20;99.90
18444;DHT22;9350;53.176;8.194;2023-07-13T05:02:37;17.20;99.90
18444;DHT22;9350;53.176;8.194;2023-07-13T05:05:07;17.30;99.90
18444;DHT22;9350;53.176;8.194;2023-07-13T05:07:34;17.20;99.90
18444;DHT22;9350;53.176;8.194;2023-07-13T05:10:00;17.30;99.90
18444;DHT22;9350;53.176;8.194;2023-07-13T05:12:27;17.20;99.90
18444;DHT22;9350;53.176;8.194;2023-07-13T05:14:54;17.30;99.90
18444;DHT22;9350;53.176;8.194;2023-07-13T05:17:21;17.20;99.90
18444;DHT22;9350;53.176;8.194;2023-07-13T05:19:48;17.30;99.90
18444;DHT22;9350;53.176;8.194;2023-07-13T05:22:16;17.30;99.90
18444;DHT22;9350;53.176;8.194;2023-07-13T05:24:42;17.30;99.90
18444;DHT22;9350;53.176;8.194;2023-07-13T05:27:09;17.40;99.90
18444;DHT22;9350;53.176;8.194;2023-07-13T05:29:36;17.40;99.90
18444;DHT22;9350;53.176;8.194;2023-07-13T05:32:04;17.40;99.90
18444;DHT22;9350;53.176;8.194;2023-07-13T05:34:31;17.40;99.90
18444;DHT22;9350;53.176;8.194;2023-07-13T05:36:57;17.40;99.90
18444;DHT22;9350;53.176;8.194;2023-07-13T05:39:26;17.30;99.90
18444;DHT22;9350;53.176;8.194;2023-07-13T05:41:53;17.40;99.90
18444;DHT22;9350;53.176;8.194;2023-07-13T05:44:19;17.40;99.90
18444;DHT22;9350;53.176;8.194;2023-07-13T05:46:46;17.40;99.90
18444;DHT22;9350;53.176;8.194;2023-07-13T05:49:13;17.40;99.90
18444;DHT22;9350;53.176;8.194;2023-07-13T05:51:39;17.50;99.90
18444;DHT22;9350;53.176;8.194;2023-07-13T05:54:06;17.50;99.90
18444;DHT22;9350;53.176;8.194;2023-07-13T05:56:34;17.60;99.90
18444;DHT22;9350;53.176;8.194;2023-07-13T05:59:01;17.60;99.90
18444;DHT22;9350;53.176;8.194;2023-07-13T06:01:30;17.60;99.90
18444;DHT22;9350;53.176;8.194;2023-07-13T06:03:57;17.70;99.90
18444;DHT22;9350;53.176;8.194;2023-07-13T06:06:23;17.60;99.90
18444;DHT22;9350;53.176;8.194;2023-07-13T06:08:50;17.70;99.90
18444;DHT22;9350;53.176;8.194;2023-07-13T06:11:19;17.70;99.90
18444;DHT22;9350;53.176;8.194;2023-07-13T06:13:48;17.70;99.90
18444;DHT22;9350;53.176;8.194;2023-07-13T06:16:15;17.80;99.90
18444;DHT22;9350;53.176;8.194;2023-07-13T06:18:42;17.80;99.90
18444;DHT22;9350;53.176;8.194;2023-07-13T06:21:10;17.80;99.90
18444;DHT22;9350;53.176;8.194;2023-07-13T06:23:38;17.80;99.90
18444;DHT22;9350;53.176;8.194;2023-07-13T06:26:05;17.80;99.90
18444;DHT22;9350;53.176;8.194;2023-07-13T06:28:33;17.90;99.90
18444;DHT22;9350;53.176;8.194;2023-07-13T06:31:04;17.90;99.90
18444;DHT22;9350;53.176;8.194;2023-07-13T06:33:31;17.90;99.90
18444;DHT22;9350;53.176;8.194;2023-07-13T06:35:58;17.90;99.90
18444;DHT22;9350;53.176;8.194;2023-07-13T06:38:25;18.00;99.90
18444;DHT22;9350;53.176;8.194;2023-07-13T06:40:52;18.00;99.90
18444;DHT22;9350;53.176;8.194;2023-07-13T06:43:18;18.00;99.90
18444;DHT22;9350;53.176;8.194;2023-07-13T06:45:46;18.00;99.90
18444;DHT22;9350;53.176;8.194;2023-07-13T06:48:17;18.00;99.90
18444;DHT22;9350;53.176;8.194;2023-07-13T06:50:45;18.00;99.90
18444;DHT22;9350;53.176;8.194;2023-07-13T06:53:13;18.00;99.90
18444;DHT22;9350;53.176;8.194;2023-07-13T06:55:40;18.10;99.90
18444;DHT22;9350;53.176;8.194;2023-07-13T06:58:06;18.10;99.90
18444;DHT22;9350;53.176;8.194;2023-07-13T07:00:33;18.20;99.90
18444;DHT22;9350;53.176;8.194;2023-07-13T07:03:00;18.20;99.90
18444;DHT22;9350;53.176;8.194;2023-07-13T07:05:28;18.20;99.90
18444;DHT22;9350;53.176;8.194;2023-07-13T07:07:55;18.20;99.90
18444;DHT22;9350;53.176;8.194;2023-07-13T07:10:22;18.30;99.90
18444;DHT22;9350;53.176;8.194;2023-07-13T07:12:49;18.40;99.90
18444;DHT22;9350;53.176;8.194;2023-07-13T07:15:16;18.40;99.90
18444;DHT22;9350;53.176;8.194;2023-07-13T07:17:43;18.50;99.90
18444;DHT22;9350;53.176;8.194;2023-07-13T07:20:11;18.40;99.90
18444;DHT22;9350;53.176;8.194;2023-07-13T07:22:39;18.50;99.90
18444;DHT22;9350;53.176;8.194;2023-07-13T07:25:06;18.60;99.90
18444;DHT22;9350;53.176;8.194;2023-07-13T07:27:33;18.60;99.90
18444;DHT22;9350;53.176;8.194;2023-07-13T07:29:59;18.70;99.90
18444;DHT22;9350;53.176;8.194;2023-07-13T07:32:28;18.80;99.90
18444;DHT22;9350;53.176;8.194;2023-07-13T07:34:55;18.80;99.90
18444;DHT22;9350;53.176;8.194;2023-07-13T07:37:22;18.90;99.90
18444;DHT22;9350;53.176;8.194;2023-07-13T07:39:50;18.90;99.90
18444;DHT22;9350;53.176;8.194;2023-07-13T07:42:17;18.90;99.90
18444;DHT22;9350;53.176;8.194;2023-07-13T07:44:43;19.00;99.90
18444;DHT22;9350;53.176;8.194;2023-07-13T07:47:10;19.10;99.90
18444;DHT22;9350;53.176;8.194;2023-07-13T07:49:37;19.10;99.90
18444;DHT22;9350;53.176;8.194;2023-07-13T07:52:05;19.20;99.90
18444;DHT22;9350;53.176;8.194;2023-07-13T07:54:32;19.20;99.90
18444;DHT22;9350;53.176;8.194;2023-07-13T07:57:00;19.20;99.90
18444;DHT22;9350;53.176;8.194;2023-07-13T07:59:27;19.30;99.90
18444;DHT22;9350;53.176;8.194;2023-07-13T08:01:53;19.40;99.90
18444;DHT22;9350;53.176;8.194;2023-07-13T08:04:20;19.40;99.90
18444;DHT22;9350;53.176;8.194;2023-07-13T08:06:47;19.50;99.90
18444;DHT22;9350;53.176;8.194;2023-07-13T08:09:13;19.50;99.90
18444;DHT22;9350;53.176;8.194;2023-07-13T08:11:40;19.60;99.90
18444;DHT22;9350;53.176;8.194;2023-07-13T08:14:08;19.60;99.90
18444;DHT22;9350;53.176;8.194;2023-07-13T08:16:35;19.70;99.90
18444;DHT22;9350;53.176;8.194;2023-07-13T08:19:02;19.70;99.90
18444;DHT22;9350;53.176;8.194;2023-07-13T08:21:29;19.70;99.90
18444;DHT22;9350;53.176;8.194;2023-07-13T08:23:56;19.80;99.90
18444;DHT22;9350;53.176;8.194;2023-07-13T08:26:23;19.80;99.90
18444;DHT22;9350;53.176;8.194;2023-07-13T08:28:50;19.90;99.90
18444;DHT22;9350;53.176;8.194;2023-07-13T08:31:18;20.00;99.90
18444;DHT22;9350;53.176;8.194;2023-07-13T08:33:44;20.00;99.90
18444;DHT22;9350;53.176;8.194;2023-07-13T08:36:11;20.00;99.90
18444;DHT22;9350;53.176;8.194;2023-07-13T08:38:38;20.00;99.90
18444;DHT22;9350;53.176;8.194;2023-07-13T08:41:12;19.90;99.90
18444;DHT22;9350;53.176;8.194;2023-07-13T08:43:39;19.80;99.90
18444;DHT22;9350;53.176;8.194;2023-07-13T08:46:12;19.70;99.90
18444;DHT22;9350;53.176;8.194;2023-07-13T08:48:44;19.70;99.90
18444;DHT22;9350;53.176;8.194;2023-07-13T08:51:21;19.70;99.90
18444;DHT22;9350;53.176;8.194;2023-07-13T08:53:53;19.80;99.90
18444;DHT22;9350;53.176;8.194;2023-07-13T08:56:24;19.90;99.90
18444;DHT22;9350;53.176;8.194;2023-07-13T08:58:56;19.90;99.90
18444;DHT22;9350;53.176;8.194;2023-07-13T09:01:29;20.10;99.90
18444;DHT22;9350;53.176;8.194;2023-07-13T09:04:05;20.20;99.90
18444;DHT22;9350;53.176;8.194;2023-07-13T09:06:42;20.30;99.90
18444;DHT22;9350;53.176;8.194;2023-07-13T09:09:20;20.30;99.90
18444;DHT22;9350;53.176;8.194;2023-07-13T09:11:52;20.30;99.90
18444;DHT22;9350;53.176;8.194;2023-07-13T09:14:37;20.20;99.90
18444;DHT22;9350;53.176;8.194;2023-07-13T09:17:12;20.10;99.90
18444;DHT22;9350;53.176;8.194;2023-07-13T09:19:43;20.10;99.90
18444;DHT22;9350;53.176;8.194;2023-07-13T09:22:16;20.20;99.90
18444;DHT22;9350;53.176;8.194;2023-07-13T09:24:52;20.30;99.90
18444;DHT22;9350;53.176;8.194;2023-07-13T09:27:24;20.30;99.90
18444;DHT22;9350;53.176;8.194;2023-07-13T09:29:59;20.50;99.90
18444;DHT22;9350;53.176;8.194;2023-07-13T09:32:29;20.60;99.90
18444;DHT22;9350;53.176;8.194;2023-07-13T09:34:57;20.60;99.90
18444;DHT22;9350;53.176;8.194;2023-07-13T09:37:29;20.70;99.90
18444;DHT22;9350;53.176;8.194;2023-07-13T09:39:58;20.70;99.90
18444;DHT22;9350;53.176;8.194;2023-07-13T09:42:26;20.80;99.90
18444;DHT22;9350;53.176;8.194;2023-07-13T09:44:55;20.90;99.90
18444;DHT22;9350;53.176;8.194;2023-07-13T09:47:24;21.00;99.90
18444;DHT22;9350;53.176;8.194;2023-07-13T09:49:57;21.00;99.90
18444;DHT22;9350;53.176;8.194;2023-07-13T09:52:26;21.00;99.90
18444;DHT22;9350;53.176;8.194;2023-07-13T09:54:54;21.10;99.90
18444;DHT22;9350;53.176;8.194;2023-07-13T09:57:25;21.10;99.90
18444;DHT22;9350;53.176;8.194;2023-07-13T09:59:54;21.10;99.90
18444;DHT22;9350;53.176;8.194;2023-07-13T10:02:27;21.20;99.90
18444;DHT22;9350;53.176;8.194;2023-07-13T10:05:00;21.10;99.90
18444;DHT22;9350;53.176;8.194;2023-07-13T10:07:29;21.10;99.90
18444;DHT22;9350;53.176;8.194;2023-07-13T10:09:57;21.10;99.90
18444;DHT22;9350;53.176;8.194;2023-07-13T10:12:24;21.10;99.90
18444;DHT22;9350;53.176;8.194;2023-07-13T10:14:54;21.10;99.90
18444;DHT22;9350;53.176;8.194;2023-07-13T10:17:27;21.00;99.90
18444;DHT22;9350;53.176;8.194;2023-07-13T10:20:00;21.00;99.90
18444;DHT22;9350;53.176;8.194;2023-07-13T10:22:36;21.10;99.90
18444;DHT22;9350;53.176;8.194;2023-07-13T10:25:14;21.20;99.90
18444;DHT22;9350;53.176;8.194;2023-07-13T10:27:43;21.10;99.90
18444;DHT22;9350;53.176;8.194;2023-07-13T10:30:14;21.10;99.90
18444;DHT22;9350;53.176;8.194;2023-07-13T10:32:43;21.20;99.90
18444;DHT22;9350;53.176;8.194;2023-07-13T10:35:14;21.20;99.90
18444;DHT22;9350;53.176;8.194;2023-07-13T10:37:47;21.20;99.90
18444;DHT22;9350;53.176;8.194;2023-07-13T10:40:19;21.30;99.90
18444;DHT22;9350;53.176;8.194;2023-07-13T10:42:50;21.30;99.90
18444;DHT22;9350;53.176;8.194;2023-07-13T10:45:20;21.10;99.90
18444;DHT22;9350;53.176;8.194;2023-07-13T10:47:48;21.00;99.90
18444;DHT22;9350;53.176;8.194;2023-07-13T10:50:21;20.80;99.90
18444;DHT22;9350;53.176;8.194;2023-07-13T10:52:50;20.70;99.90
18444;DHT22;9350;53.176;8.194;2023-07-13T10:55:33;20.70;99.90
18444;DHT22;9350;53.176;8.194;2023-07-13T10:58:02;20.20;99.90
18444;DHT22;9350;53.176;8.194;2023-07-13T11:00:32;20.10;99.90
18444;DHT22;9350;53.176;8.194;2023-07-13T11:03:14;19.90;99.90
18444;DHT22;9350;53.176;8.194;2023-07-13T11:05:42;19.70;99.90
18444;DHT22;9350;53.176;8.194;2023-07-13T11:08:16;19.40;99.90
18444;DHT22;9350;53.176;8.194;2023-07-13T11:10:48;19.00;99.90
18444;DHT22;9350;53.176;8.194;2023-07-13T11:13:35;18.70;99.90
18444;DHT22;9350;53.176;8.194;2023-07-13T11:16:12;18.60;99.90
18444;DHT22;9350;53.176;8.194;2023-07-13T11:18:39;18.50;99.90
18444;DHT22;9350;53.176;8.194;2023-07-13T11:21:16;18.60;99.90
18444;DHT22;9350;53.176;8.194;2023-07-13T11:23:44;18.60;99.90
18444;DHT22;9350;53.176;8.194;2023-07-13T11:26:37;18.60;99.90
18444;DHT22;9350;53.176;8.194;2023-07-13T11:29:09;18.60;99.90
18444;DHT22;9350;53.176;8.194;2023-07-13T11:31:36;18.70;99.90
18444;DHT22;9350;53.176;8.194;2023-07-13T11:34:13;18.70;99.90
18444;DHT22;9350;53.176;8.194;2023-07-13T11:36:44;18.50;99.90
18444;DHT22;9350;53.176;8.194;2023-07-13T11:39:18;18.50;99.90
18444;DHT22;9350;53.176;8.194;2023-07-13T11:41:50;18.50;99.90
18444;DHT22;9350;53.176;8.194;2023-07-13T11:44:19;18.50;99.90
18444;DHT22;9350;53.176;8.194;2023-07-13T11:46:48;18.50;99.90
18444;DHT22;9350;53.176;8.194;2023-07-13T11:49:17;18.50;99.90
18444;DHT22;9350;53.176;8.194;2023-07-13T11:51:46;18.50;99.90
18444;DHT22;9350;53.176;8.194;2023-07-13T11:54:25;18.60;99.90
18444;DHT22;9350;53.176;8.194;2023-07-13T11:56:54;18.60;99.90
18444;DHT22;9350;53.176;8.194;2023-07-13T11:59:21;18.70;99.90
18444;DHT22;9350;53.176;8.194;2023-07-13T12:01:51;18.80;99.90
18444;DHT22;9350;53.176;8.194;2023-07-13T12:04:22;19.00;99.90
18444;DHT22;9350;53.176;8.194;2023-07-13T12:06:56;19.20;99.90
18444;DHT22;9350;53.176;8.194;2023-07-13T12:09:27;19.40;99.90
18444;DHT22;9350;53.176;8.194;2023-07-13T12:11:54;19.50;99.90
18444;DHT22;9350;53.176;8.194;2023-07-13T12:14:22;19.60;99.90
18444;DHT22;9350;53.176;8.194;2023-07-13T12:16:50;19.80;99.90
18444;DHT22;9350;53.176;8.194;2023-07-13T12:19:20;19.80;99.90
18444;DHT22;9350;53.176;8.194;2023-07-13T12:21:47;19.80;99.90
18444;DHT22;9350;53.176;8.194;2023-07-13T12:24:17;19.70;99.90
18444;DHT22;9350;53.176;8.194;2023-07-13T12:26:44;19.70;99.90
18444;DHT22;9350;53.176;8.194;2023-07-13T12:29:16;19.60;99.90
18444;DHT22;9350;53.176;8.194;2023-07-13T12:31:44;19.80;99.90
18444;DHT22;9350;53.176;8.194;2023-07-13T12:34:13;20.00;99.90
18444;DHT22;9350;53.176;8.194;2023-07-13T12:36:46;20.10;99.90
18444;DHT22;9350;53.176;8.194;2023-07-13T12:39:17;20.20;99.90
18444;DHT22;9350;53.176;8.194;2023-07-13T12:41:45;20.30;99.90
18444;DHT22;9350;53.176;8.194;2023-07-13T12:44:13;20.30;99.90
18444;DHT22;9350;53.176;8.194;2023-07-13T12:46:52;20.30;99.90
18444;DHT22;9350;53.176;8.194;2023-07-13T12:49:23;20.50;99.90
18444;DHT22;9350;53.176;8.194;2023-07-13T12:51:55;20.60;99.90
18444;DHT22;9350;53.176;8.194;2023-07-13T12:54:23;20.70;99.90
18444;DHT22;9350;53.176;8.194;2023-07-13T12:56:50;20.80;99.90
18444;DHT22;9350;53.176;8.194;2023-07-13T12:59:21;20.60;99.90
18444;DHT22;9350;53.176;8.194;2023-07-13T13:01:49;20.70;99.90
18444;DHT22;9350;53.176;8.194;2023-07-13T13:04:16;20.70;99.90
18444;DHT22;9350;53.176;8.194;2023-07-13T13:06:46;20.70;99.90
18444;DHT22;9350;53.176;8.194;2023-07-13T13:09:14;20.50;99.90
18444;DHT22;9350;53.176;8.194;2023-07-13T13:11:43;20.50;99.90
18444;DHT22;9350;53.176;8.194;2023-07-13T13:14:09;20.50;99.90
18444;DHT22;9350;53.176;8.194;2023-07-13T13:16:43;20.50;99.90
18444;DHT22;9350;53.176;8.194;2023-07-13T13:19:13;20.50;99.90
18444;DHT22;9350;53.176;8.194;2023-07-13T13:21:42;20.40;99.90
18444;DHT22;9350;53.176;8.194;2023-07-13T13:24:11;20.30;99.90
18444;DHT22;9350;53.176;8.194;2023-07-13T13:26:38;20.30;99.90
18444;DHT22;9350;53.176;8.194;2023-07-13T13:29:12;20.20;99.90
18444;DHT22;9350;53.176;8.194;2023-07-13T13:31:40;20.30;99.90
18444;DHT22;9350;53.176;8.194;2023-07-13T13:34:09;20.40;99.90
18444;DHT22;9350;53.176;8.194;2023-07-13T13:36:36;20.50;99.90
18444;DHT22;9350;53.176;8.194;2023-07-13T13:39:05;20.60;99.90
18444;DHT22;9350;53.176;8.194;2023-07-13T13:41:32;20.60;99.90
18444;DHT22;9350;53.176;8.194;2023-07-13T13:43:59;20.60;99.90
18444;DHT22;9350;53.176;8.194;2023-07-13T13:46:27;20.50;99.90
18444;DHT22;9350;53.176;8.194;2023-07-13T13:48:55;20.30;99.90
18444;DHT22;9350;53.176;8.194;2023-07-13T13:51:23;20.20;99.90
18444;DHT22;9350;53.176;8.194;2023-07-13T13:53:50;20.20;99.90
18444;DHT22;9350;53.176;8.194;2023-07-13T13:56:19;20.20;99.90
18444;DHT22;9350;53.176;8.194;2023-07-13T13:58:46;20.20;99.90
18444;DHT22;9350;53.176;8.194;2023-07-13T14:01:21;20.20;99.90
18444;DHT22;9350;53.176;8.194;2023-07-13T14:03:51;20.20;99.90
18444;DHT22;9350;53.176;8.194;2023-07-13T14:06:18;20.20;99.90
18444;DHT22;9350;53.176;8.194;2023-07-13T14:08:44;20.20;99.90
18444;DHT22;9350;53.176;8.194;2023-07-13T14:11:13;20.10;99.90
18444;DHT22;9350;53.176;8.194;2023-07-13T14:13:43;19.80;99.90
18444;DHT22;9350;53.176;8.194;2023-07-13T14:16:14;19.70;99.90
18444;DHT22;9350;53.176;8.194;2023-07-13T14:18:43;19.50;99.90
18444;DHT22;9350;53.176;8.194;2023-07-13T14:21:13;19.30;99.90
18444;DHT22;9350;53.176;8.194;2023-07-13T14:23:40;19.20;99.90
18444;DHT22;9350;53.176;8.194;2023-07-13T14:26:12;19.00;99.90
18444;DHT22;9350;53.176;8.194;2023-07-13T14:28:42;18.70;99.90
18444;DHT22;9350;53.176;8.194;2023-07-13T14:31:09;18.40;99.90
18444;DHT22;9350;53.176;8.194;2023-07-13T14:33:36;18.40;99.90
18444;DHT22;9350;53.176;8.194;2023-07-13T14:36:04;18.30;99.90
18444;DHT22;9350;53.176;8.194;2023-07-13T14:38:37;18.30;99.90
18444;DHT22;9350;53.176;8.194;2023-07-13T14:41:03;18.20;99.90
18444;DHT22;9350;53.176;8.194;2023-07-13T14:43:30;18.20;99.90
18444;DHT22;9350;53.176;8.194;2023-07-13T14:45:57;18.30;99.90
18444;DHT22;9350;53.176;8.194;2023-07-13T14:48:25;18.30;99.90
18444;DHT22;9350;53.176;8.194;2023-07-13T14:50:54;18.30;99.90
18444;DHT22;9350;53.176;8.194;2023-07-13T14:53:21;18.30;99.90
18444;DHT22;9350;53.176;8.194;2023-07-13T14:55:49;18.30;99.90
18444;DHT22;9350;53.176;8.194;2023-07-13T14:58:16;18.30;99.90
18444;DHT22;9350;53.176;8.194;2023-07-13T15:00:43;18.30;99.90
18444;DHT22;9350;53.176;8.194;2023-07-13T15:03:18;18.30;99.90
18444;DHT22;9350;53.176;8.194;2023-07-13T15:05:47;18.20;99.90
18444;DHT22;9350;53.176;8.194;2023-07-13T15:08:13;18.30;99.90
18444;DHT22;9350;53.176;8.194;2023-07-13T15:10:41;18.20;99.90
18444;DHT22;9350;53.176;8.194;2023-07-13T15:13:17;18.20;99.90
18444;DHT22;9350;53.176;8.194;2023-07-13T15:15:46;18.20;99.90
18444;DHT22;9350;53.176;8.194;2023-07-13T15:18:15;18.30;99.90
18444;DHT22;9350;53.176;8.194;2023-07-13T15:20:44;18.20;99.90
18444;DHT22;9350;53.176;8.194;2023-07-13T15:23:12;18.20;99.90
18444;DHT22;9350;53.176;8.194;2023-07-13T15:25:39;18.30;99.90
18444;DHT22;9350;53.176;8.194;2023-07-13T15:28:06;18.30;99.90
18444;DHT22;9350;53.176;8.194;2023-07-13T15:30:38;18.50;99.90
18444;DHT22;9350;53.176;8.194;2023-07-13T15:33:12;18.50;99.90
18444;DHT22;9350;53.176;8.194;2023-07-13T15:35:39;18.70;99.90
18444;DHT22;9350;53.176;8.194;2023-07-13T15:38:14;18.80;99.90
18444;DHT22;9350;53.176;8.194;2023-07-13T15:40:41;18.80;99.90
18444;DHT22;9350;53.176;8.194;2023-07-13T15:43:10;18.90;99.90
18444;DHT22;9350;53.176;8.194;2023-07-13T15:45:40;18.90;99.90
18444;DHT22;9350;53.176;8.194;2023-07-13T15:48:14;18.90;99.90
18444;DHT22;9350;53.176;8.194;2023-07-13T15:50:44;18.90;99.90
18444;DHT22;9350;53.176;8.194;2023-07-13T15:53:14;19.00;99.90
18444;DHT22;9350;53.176;8.194;2023-07-13T15:55:41;19.10;99.90